Tioga, North Dakota
Current Conditions -  °F | °C
As of 6:15 AM on Saturday 25 Oct 2014 (Local Time) from KD60 Reporting Station
Clear Clear  
Wind Chill: 27°   Ceiling: Unl
Heat Index: 32°   Visibility: 10mi
Dew Point: 32°   Wind: 5mph
Humidity: 100%   Direction: 270°W
Pressure: 30.14"   Gusts: NA
Location:  48.4°N, 102.94°W
Report Text: KD60 251115Z AUTO 27004KT 10SM CLR 00/00 A3014 RMK AO2
Loading
Personal Weather Stations






























Interactive Weather Map
Tropical Storm Tracking
New forecast layout! Learn more

10-Day Weather Forecast

Advertisements
Track Severe Weather on mobile